Time;durP1;ratioP1;P1;durP2;ratioP2;P2;SDS_P1;SDS_P2;PMS_P1;PMS_P2;Temp;Humidity;BMP_temperature;BMP_pressure;BME280_temperature;BME280_humidity;BME280_pressure;Samples;Min_cycle;Max_cycle;Signal;HPM_P1;HPM_P2
2023/01/11 00:00:20;;;;;;;;;;;;;;;20.77;30.68;97466.41;5075641;28;916;-75
2023/01/11 00:02:47;;;;;;;;;;;;;;;20.92;30.33;97460.31;5075143;28;951;-75
2023/01/11 00:05:12;;;;;;;;;;;;;;;21.46;29.92;97459.34;5075512;28;1905;-75
2023/01/11 00:07:39;;;;;;;;;;;;;;;21.53;29.88;97459.88;5076768;28;1043;-75
2023/01/11 00:10:08;;;;;;;;;;;;;;;21.27;29.87;97436.50;5078767;28;927;-76
2023/01/11 00:12:33;;;;;;;;;;;;;;;21.21;30.32;97426.22;5079197;28;921;-75
2023/01/11 00:14:59;;;;;;;;;;;;;;;20.81;30.79;97455.78;5078793;28;1036;-75
2023/01/11 00:17:24;;;;;;;;;;;;;;;20.95;30.95;97487.69;5079086;28;929;-76
2023/01/11 00:19:49;;;;;;;;;;;;;;;21.49;29.85;97489.56;5079043;28;879;-75
2023/01/11 00:22:15;;;;;;;;;;;;;;;21.56;29.55;97503.50;5078655;28;950;-75
2023/01/11 00:24:40;;;;;;;;;;;;;;;21.24;29.83;97505.34;5078364;28;1965;-75
2023/01/11 00:27:06;;;;;;;;;;;;;;;21.27;29.67;97510.06;5056335;28;1047;-75
2023/01/11 00:29:31;;;;;;;;;;;;;;;21.21;29.41;97523.22;5056141;28;971;-74
2023/01/11 00:31:56;;;;;;;;;;;;;;;21.49;29.93;97524.31;5056110;28;1008;-75
2023/01/11 00:34:22;;;;;;;;;;;;;;;21.38;30.24;97520.28;5056362;28;966;-76
2023/01/11 00:36:47;;;;;;;;;;;;;;;21.42;30.19;97524.56;5056419;28;942;-75
2023/01/11 00:39:13;;;;;;;;;;;;;;;21.21;29.93;97523.22;5056381;28;935;-75
2023/01/11 00:49:54;;;;;;;;;;;;;;;21.24;30.60;97516.66;5041673;28;1002;-75
2023/01/11 00:52:20;;;;;;;;;;;;;;;21.44;30.16;97515.59;5055607;28;1174;-76
2023/01/11 00:54:45;;;;;;;;;;;;;;;21.22;30.09;97509.84;5055910;28;1002;-75
2023/01/11 00:57:11;;;;;;;;;;;;;;;21.17;29.98;97501.94;5058484;28;989;-75
2023/01/11 00:59:38;;;;;;;;;;;;;;;21.07;30.02;97470.69;5078037;28;928;-75
2023/01/11 01:02:03;;;;;;;;;;;;;;;21.30;30.34;97469.59;5077994;28;989;-75
2023/01/11 01:04:29;;;;;;;;;;;;;;;21.40;30.38;97483.81;5078082;28;1977;-75
2023/01/11 01:06:54;;;;;;;;;;;;;;;21.30;30.11;97475.25;5078166;28;1198;-75
2023/01/11 01:09:19;;;;;;;;;;;;;;;21.09;30.36;97467.44;5078062;28;980;-74
2023/01/11 01:11:45;;;;;;;;;;;;;;;21.18;30.31;97473.19;5077713;28;941;-75
2023/01/11 01:14:27;;;;;;;;;;;;;;;21.13;29.93;97470.13;5076395;28;901;-75
2023/01/11 01:16:53;;;;;;;;;;;;;;;21.57;30.31;97477.53;5077266;28;995;-75
2023/01/11 01:19:20;;;;;;;;;;;;;;;21.55;30.32;97470.75;5077051;28;905;-75
2023/01/11 01:21:45;;;;;;;;;;;;;;;21.90;29.79;97470.75;5077945;28;886;-75
2023/01/11 01:24:11;;;;;;;;;;;;;;;21.24;30.35;97471.38;5077577;28;900;-75
2023/01/11 01:26:36;;;;;;;;;;;;;;;21.16;30.80;97470.03;5077836;28;1974;-75
2023/01/11 01:29:02;;;;;;;;;;;;;;;21.04;30.50;97468.00;5077754;28;933;-75
2023/01/11 01:31:27;;;;;;;;;;;;;;;21.11;30.89;97467.75;5076752;28;948;-76
2023/01/11 01:33:52;;;;;;;;;;;;;;;21.22;30.71;97468.19;5077595;28;1005;-75
2023/01/11 01:36:18;;;;;;;;;;;;;;;21.52;29.99;97466.81;5077524;28;854;-76
2023/01/11 01:38:43;;;;;;;;;;;;;;;21.22;30.25;97473.84;5077381;28;919;-75
2023/01/11 01:41:09;;;;;;;;;;;;;;;21.12;30.13;97483.50;5077348;28;962;-75
2023/01/11 01:43:44;;;;;;;;;;;;;;;21.09;30.16;97498.56;5075770;28;971;-76
2023/01/11 01:46:09;;;;;;;;;;;;;;;21.22;30.61;97510.63;5076752;28;1906;-75
2023/01/11 01:48:35;;;;;;;;;;;;;;;21.69;29.36;97512.72;5077317;28;893;-76
2023/01/11 01:51:01;;;;;;;;;;;;;;;21.58;29.49;97517.97;5075709;28;986;-76
2023/01/11 01:53:26;;;;;;;;;;;;;;;21.19;29.78;97525.72;5077593;28;940;-74
2023/01/11 01:55:52;;;;;;;;;;;;;;;21.20;29.62;97524.47;5077118;28;939;-75
2023/01/11 01:58:18;;;;;;;;;;;;;;;20.80;30.01;97519.25;5076019;28;982;-75
2023/01/11 02:00:44;;;;;;;;;;;;;;;21.07;30.40;97530.09;5077052;28;960;-75
2023/01/11 02:03:11;;;;;;;;;;;;;;;21.22;30.01;97513.47;5076460;28;1026;-75
2023/01/11 02:05:36;;;;;;;;;;;;;;;21.13;30.00;97527.50;5076903;28;1976;-75
2023/01/11 02:08:02;;;;;;;;;;;;;;;20.88;30.17;97533.16;5075404;28;1171;-75
2023/01/11 02:10:27;;;;;;;;;;;;;;;20.83;30.18;97536.53;5075455;28;1036;-75
2023/01/11 02:13:00;;;;;;;;;;;;;;;20.98;29.66;97532.03;5076915;28;946;-75
2023/01/11 02:15:26;;;;;;;;;;;;;;;21.27;29.83;97534.75;5074430;28;1146;-75
2023/01/11 02:17:51;;;;;;;;;;;;;;;21.26;29.93;97542.44;5077037;28;893;-75
2023/01/11 02:20:20;;;;;;;;;;;;;;;21.20;30.00;97532.94;5076419;28;1072;-75
2023/01/11 02:22:51;;;;;;;;;;;;;;;21.04;29.74;97524.59;5076639;28;932;-75
2023/01/11 02:25:28;;;;;;;;;;;;;;;21.05;29.50;97531.81;5076603;28;1972;-75
2023/01/11 02:28:03;;;;;;;;;;;;;;;20.90;29.85;97536.34;5075134;28;1018;-75
2023/01/11 02:30:33;;;;;;;;;;;;;;;21.18;30.23;97521.28;5076257;28;943;-76
2023/01/11 02:33:01;;;;;;;;;;;;;;;21.37;29.43;97508.16;5074927;28;925;-75
2023/01/11 02:35:33;;;;;;;;;;;;;;;21.55;29.20;97499.06;5076140;28;970;-75
2023/01/11 02:38:02;;;;;;;;;;;;;;;21.36;29.28;97500.94;5076079;28;936;-76
2023/01/11 02:40:47;;;;;;;;;;;;;;;21.16;29.43;97512.47;5075357;28;950;-76
2023/01/11 02:45:58;;;;;;;;;;;;;;;20.99;30.25;97505.34;5075048;28;1906;-76
2023/01/11 02:48:38;;;;;;;;;;;;;;;21.13;29.68;97521.06;5076013;28;934;-76
2023/01/11 02:51:09;;;;;;;;;;;;;;;21.50;29.33;97516.63;5074817;28;968;-76
2023/01/11 02:53:35;;;;;;;;;;;;;;;21.19;29.10;97525.72;5073699;28;1168;-76
2023/01/11 02:56:02;;;;;;;;;;;;;;;20.90;29.54;97525.03;5076335;28;992;-76
2023/01/11 02:58:29;;;;;;;;;;;;;;;20.85;29.78;97534.06;5040357;28;1012;-76
2023/01/11 03:00:54;;;;;;;;;;;;;;;21.32;29.80;97529.34;5075144;28;1197;-76
2023/01/11 03:03:21;;;;;;;;;;;;;;;21.45;28.92;97543.47;5073563;28;973;-76
2023/01/11 03:05:47;;;;;;;;;;;;;;;21.37;29.36;97547.78;5073828;28;1906;-77
2023/01/11 03:08:25;;;;;;;;;;;;;;;21.05;29.39;97560.09;5073650;28;1038;-77
2023/01/11 03:10:53;;;;;;;;;;;;;;;21.08;29.49;97570.50;5057174;28;996;-76
2023/01/11 03:13:24;;;;;;;;;;;;;;;21.00;29.20;97580.47;5073761;28;1040;-76
2023/01/11 03:15:54;;;;;;;;;;;;;;;21.17;29.30;97590.44;5073844;28;940;-76
2023/01/11 03:18:37;;;;;;;;;;;;;;;21.24;29.09;97589.41;5073665;28;984;-76
2023/01/11 03:21:29;;;;;;;;;;;;;;;21.46;29.05;97589.56;5073616;28;998;-76
2023/01/11 03:24:21;;;;;;;;;;;;;;;20.96;29.53;97608.84;5069589;28;1026;-76
2023/01/11 03:26:55;;;;;;;;;;;;;;;20.78;29.79;97597.28;5069972;28;1051;-77
2023/01/11 03:29:29;;;;;;;;;;;;;;;21.00;29.84;97594.59;5073515;28;990;-76
2023/01/11 03:31:57;;;;;;;;;;;;;;;21.20;29.07;97600.84;5056889;28;1458;-76
2023/01/11 03:34:22;;;;;;;;;;;;;;;21.12;29.13;97588.16;5064373;28;946;-76
2023/01/11 03:37:08;;;;;;;;;;;;;;;21.05;29.29;97574.25;5076222;28;990;-76
2023/01/11 03:40:06;;;;;;;;;;;;;;;21.00;29.01;97591.78;5074159;28;1014;-76
2023/01/11 03:42:32;;;;;;;;;;;;;;;20.89;29.56;97594.16;5034919;28;1032;-76
2023/01/11 03:44:57;;;;;;;;;;;;;;;21.09;29.37;97589.06;5003969;28;1902;-76
2023/01/11 03:47:23;;;;;;;;;;;;;;;21.09;29.57;97589.06;5020822;28;994;-76
2023/01/11 03:49:52;;;;;;;;;;;;;;;21.12;29.39;97576.84;5020882;28;969;-76
2023/01/11 03:52:19;;;;;;;;;;;;;;;20.81;29.77;97568.88;5020853;28;918;-75
2023/01/11 03:54:45;;;;;;;;;;;;;;;20.86;29.28;97569.59;5020575;28;1447;-76
2023/01/11 03:57:15;;;;;;;;;;;;;;;21.13;29.53;97575.59;5004281;28;1076;-76
2023/01/11 03:59:41;;;;;;;;;;;;;;;21.18;29.10;97580.69;5020678;28;933;-75
2023/01/11 04:02:27;;;;;;;;;;;;;;;21.55;28.67;97587.63;5037124;28;1009;-76
2023/01/11 04:04:52;;;;;;;;;;;;;;;21.08;29.01;97593.13;5036171;28;2057;-76
2023/01/11 04:07:17;;;;;;;;;;;;;;;20.95;29.05;97606.47;5011983;28;1081;-76
2023/01/11 04:09:43;;;;;;;;;;;;;;;20.92;28.99;97607.38;4996980;28;967;-76
2023/01/11 04:12:09;;;;;;;;;;;;;;;21.07;29.34;97603.66;4981316;28;985;-76
2023/01/11 04:14:34;;;;;;;;;;;;;;;21.11;29.40;97606.38;4980825;28;909;-76
2023/01/11 04:16:59;;;;;;;;;;;;;;;21.17;29.29;97615.09;4982531;28;1325;-76
2023/01/11 04:19:25;;;;;;;;;;;;;;;21.40;28.67;97614.00;5020178;28;1093;-77
2023/01/11 04:21:50;;;;;;;;;;;;;;;21.18;28.68;97614.63;5020360;28;968;-76
2023/01/11 04:24:17;;;;;;;;;;;;;;;21.10;28.91;97624.59;5037068;28;1009;-76
2023/01/11 04:26:43;;;;;;;;;;;;;;;21.01;29.06;97621.66;5020229;28;1910;-75
2023/01/11 04:29:08;;;;;;;;;;;;;;;21.06;29.11;97623.91;5020174;28;1022;-76
2023/01/11 04:31:34;;;;;;;;;;;;;;;21.31;28.97;97612.66;5036089;28;1022;-76
2023/01/11 04:33:59;;;;;;;;;;;;;;;21.33;29.08;97615.81;5036523;28;1015;-76
2023/01/11 04:36:25;;;;;;;;;;;;;;;21.38;28.48;97614.44;5036137;28;996;-76
2023/01/11 04:38:50;;;;;;;;;;;;;;;21.09;28.86;97628.69;4987516;28;985;-76
2023/01/11 04:44:00;;;;;;;;;;;;;;;21.14;28.70;97624.47;5037244;28;1005;-76
2023/01/11 04:46:25;;;;;;;;;;;;;;;21.30;29.06;97628.06;5038589;28;1910;-75
2023/01/11 04:48:51;;;;;;;;;;;;;;;21.29;28.66;97637.72;5053516;28;932;-77
2023/01/11 04:51:16;;;;;;;;;;;;;;;21.49;28.40;97636.75;5020622;28;1012;-77
2023/01/11 04:53:42;;;;;;;;;;;;;;;21.22;28.79;97640.78;5037437;28;979;-76
2023/01/11 04:56:08;;;;;;;;;;;;;;;20.89;29.05;97656.34;5038222;28;968;-76
2023/01/11 04:58:33;;;;;;;;;;;;;;;20.83;29.19;97653.28;5036578;28;942;-76
2023/01/11 05:00:59;;;;;;;;;;;;;;;21.03;29.34;97653.88;5020695;28;947;-77
2023/01/11 05:03:24;;;;;;;;;;;;;;;21.25;28.68;97648.38;5038057;28;934;-76
2023/01/11 05:05:56;;;;;;;;;;;;;;;21.54;28.07;97647.50;5037017;28;1906;-77
2023/01/11 05:08:22;;;;;;;;;;;;;;;21.05;28.85;97650.63;5070362;28;1207;-77
2023/01/11 05:10:54;;;;;;;;;;;;;;;21.11;28.62;97648.81;5078288;28;1113;-76
2023/01/11 05:13:20;;;;;;;;;;;;;;;20.79;28.94;97644.13;5078211;28;1036;-77
2023/01/11 05:15:45;;;;;;;;;;;;;;;20.69;30.09;97646.00;5076855;28;954;-78
2023/01/11 05:18:10;;;;;;;;;;;;;;;20.90;29.53;97649.47;5076668;28;926;-76
2023/01/11 05:20:36;;;;;;;;;;;;;;;21.16;28.88;97653.91;5075353;28;1077;-74
2023/01/11 05:23:01;;;;;;;;;;;;;;;21.00;28.84;97654.00;5077712;28;989;-75
2023/01/11 05:25:27;;;;;;;;;;;;;;;20.84;28.92;97668.22;5077266;28;1914;-76
2023/01/11 05:27:52;;;;;;;;;;;;;;;20.79;29.08;97673.19;5077807;28;1034;-75
2023/01/11 05:30:18;;;;;;;;;;;;;;;20.69;29.21;97671.44;5077318;28;1178;-75
2023/01/11 05:32:43;;;;;;;;;;;;;;;20.74;29.19;97673.72;5077696;28;999;-77
2023/01/11 05:35:10;;;;;;;;;;;;;;;21.08;29.05;97673.13;5075989;28;910;-76
2023/01/11 05:37:36;;;;;;;;;;;;;;;21.17;28.63;97675.31;5077155;28;987;-76
2023/01/11 05:40:01;;;;;;;;;;;;;;;20.93;29.03;97671.97;5075737;28;997;-76
2023/01/11 05:42:26;;;;;;;;;;;;;;;20.62;29.42;97671.63;5077335;28;957;-76
2023/01/11 05:47:36;;;;;;;;;;;;;;;20.71;29.39;97674.59;5076783;28;987;-76
2023/01/11 05:50:02;;;;;;;;;;;;;;;20.99;28.95;97683.53;5076993;28;953;-76
2023/01/11 05:52:27;;;;;;;;;;;;;;;21.43;28.11;97678.19;5077310;28;912;-75
2023/01/11 05:54:52;;;;;;;;;;;;;;;21.01;28.66;97678.22;5076873;28;1033;-74
2023/01/11 05:57:18;;;;;;;;;;;;;;;20.88;28.64;97677.38;5074401;28;942;-74
2023/01/11 05:59:43;;;;;;;;;;;;;;;20.83;28.67;97672.28;5076809;28;1023;-75
2023/01/11 06:02:09;;;;;;;;;;;;;;;20.87;29.48;97684.28;5076656;28;1013;-77
2023/01/11 06:04:34;;;;;;;;;;;;;;;21.31;28.34;97694.72;5076540;28;1981;-77
2023/01/11 06:07:00;;;;;;;;;;;;;;;21.11;28.35;97687.63;5074888;28;1176;-74
2023/01/11 06:09:25;;;;;;;;;;;;;;;20.96;28.65;97692.91;5076652;28;904;-75
2023/01/11 06:11:50;;;;;;;;;;;;;;;20.69;28.98;97682.75;5076672;28;1027;-74
2023/01/11 06:14:16;;;;;;;;;;;;;;;20.67;29.41;97681.59;5076664;28;1058;-73
2023/01/11 06:16:41;;;;;;;;;;;;;;;20.94;29.27;97690.53;5076640;28;919;-75
2023/01/11 06:19:07;;;;;;;;;;;;;;;21.12;28.81;97698.50;5075637;28;1606;-74
2023/01/11 06:21:32;;;;;;;;;;;;;;;20.98;28.63;97701.72;5076258;28;1489;-75
2023/01/11 06:23:58;;;;;;;;;;;;;;;20.98;28.59;97713.84;5076264;28;993;-75
2023/01/11 06:26:24;;;;;;;;;;;;;;;20.76;29.00;97708.00;5075024;28;1898;-75
2023/01/11 06:28:49;;;;;;;;;;;;;;;20.94;29.11;97718.81;5076256;28;1006;-75
2023/01/11 06:31:15;;;;;;;;;;;;;;;21.23;28.59;97734.97;5075154;28;1036;-75
2023/01/11 06:33:40;;;;;;;;;;;;;;;21.31;28.40;97742.03;5076411;28;917;-76
2023/01/11 06:36:07;;;;;;;;;;;;;;;21.05;28.55;97743.97;5075002;28;1325;-75
2023/01/11 06:38:32;;;;;;;;;;;;;;;21.00;28.70;97747.34;5074905;28;979;-75
2023/01/11 06:40:59;;;;;;;;;;;;;;;20.80;28.94;97748.28;5076068;28;920;-76
2023/01/11 06:43:24;;;;;;;;;;;;;;;21.40;28.47;97749.84;5074880;28;954;-75
2023/01/11 06:45:50;;;;;;;;;;;;;;;21.42;28.33;97750.22;5075674;28;1898;-75
2023/01/11 06:48:16;;;;;;;;;;;;;;;21.11;28.64;97756.31;5076070;28;920;-75
2023/01/11 06:50:41;;;;;;;;;;;;;;;20.90;29.06;97756.94;5074554;28;975;-75
2023/01/11 06:53:07;;;;;;;;;;;;;;;20.78;29.15;97756.44;5075919;28;941;-76
2023/01/11 06:55:32;;;;;;;;;;;;;;;20.73;29.27;97756.97;5076354;28;1012;-76
2023/01/11 06:57:58;;;;;;;;;;;;;;;21.05;29.22;97758.13;5075902;28;1007;-76
2023/01/11 07:00:23;;;;;;;;;;;;;;;21.25;28.66;97757.97;5074667;28;1026;-74
2023/01/11 07:02:49;;;;;;;;;;;;;;;20.99;28.86;97760.69;5075812;28;1101;-75
2023/01/11 07:05:14;;;;;;;;;;;;;;;20.93;29.36;97761.66;5075978;28;1902;-75
2023/01/11 07:07:40;;;;;;;;;;;;;;;20.62;29.41;97758.47;5074367;28;1254;-75
2023/01/11 07:10:07;;;;;;;;;;;;;;;21.12;28.84;97765.59;5074779;28;925;-76
2023/01/11 07:12:33;;;;;;;;;;;;;;;21.52;28.19;97758.38;5075749;28;981;-76
2023/01/11 07:14:59;;;;;;;;;;;;;;;21.37;28.38;97762.09;5075548;28;1000;-75
2023/01/11 07:17:24;;;;;;;;;;;;;;;20.94;29.03;97757.63;5076514;28;1006;-76
2023/01/11 07:19:50;;;;;;;;;;;;;;;20.81;28.83;97760.38;5078682;28;1001;-70
2023/01/11 07:22:15;;;;;;;;;;;;;;;21.06;28.93;97765.34;5079612;28;1064;-75
2023/01/11 07:24:40;;;;;;;;;;;;;;;20.79;29.43;97763.66;5079512;28;1976;-75
2023/01/11 07:27:06;;;;;;;;;;;;;;;20.56;30.07;97761.03;5077657;28;1021;-75
2023/01/11 07:29:31;;;;;;;;;;;;;;;21.09;29.37;97764.47;5079409;28;1005;-76
2023/01/11 07:31:57;;;;;;;;;;;;;;;21.16;29.18;97764.25;5079321;28;971;-76
2023/01/11 07:34:23;;;;;;;;;;;;;;;20.91;29.54;97770.59;5061500;28;952;-75
2023/01/11 07:36:48;;;;;;;;;;;;;;;20.92;29.62;97777.06;5079395;28;1029;-75
2023/01/11 07:39:14;;;;;;;;;;;;;;;20.68;29.92;97768.81;5078985;28;948;-76
2023/01/11 07:44:23;;;;;;;;;;;;;;;21.26;29.64;97785.78;5079138;28;926;-76
2023/01/11 07:46:48;;;;;;;;;;;;;;;21.23;29.48;97775.34;5079052;28;1987;-75
2023/01/11 07:49:14;;;;;;;;;;;;;;;20.97;29.85;97776.50;5079581;28;955;-75
2023/01/11 07:51:39;;;;;;;;;;;;;;;21.04;29.78;97784.81;5077734;28;877;-75
2023/01/11 07:54:05;;;;;;;;;;;;;;;20.99;29.50;97788.19;5079509;28;991;-76
2023/01/11 07:56:30;;;;;;;;;;;;;;;20.98;29.66;97792.25;5077898;28;982;-75
2023/01/11 07:58:56;;;;;;;;;;;;;;;21.38;29.53;97794.78;5079005;28;894;-75
2023/01/11 08:01:21;;;;;;;;;;;;;;;21.36;29.16;97806.56;5078972;28;955;-74
2023/01/11 08:03:47;;;;;;;;;;;;;;;21.07;29.59;97806.53;5078709;28;926;-75
2023/01/11 08:06:15;;;;;;;;;;;;;;;20.91;30.14;97809.41;5078825;28;1901;-74
2023/01/11 08:08:41;;;;;;;;;;;;;;;20.92;29.95;97808.97;5079281;28;1206;-75
2023/01/11 08:16:35;;;;;;;;;;;;;;;20.97;29.73;97818.94;5076679;28;1000;-75
2023/01/11 08:19:00;;;;;;;;;;;;;;;21.20;29.83;97827.22;5078704;28;959;-74
2023/01/11 08:21:26;;;;;;;;;;;;;;;21.28;29.79;97828.56;5078434;28;932;-75
2023/01/11 08:23:52;;;;;;;;;;;;;;;21.01;30.08;97825.31;5078670;28;945;-74
2023/01/11 08:26:17;;;;;;;;;;;;;;;20.89;30.22;97834.53;5078142;28;1965;-75
2023/01/11 08:28:43;;;;;;;;;;;;;;;20.83;30.44;97836.28;5078431;28;987;-76
2023/01/11 08:31:08;;;;;;;;;;;;;;;20.93;29.85;97840.88;5078320;28;987;-75
2023/01/11 08:33:34;;;;;;;;;;;;;;;20.95;30.33;97844.06;5077210;28;962;-74
2023/01/11 08:36:06;;;;;;;;;;;;;;;21.37;29.63;97842.13;5078475;28;991;-75
2023/01/11 08:38:31;;;;;;;;;;;;;;;21.20;30.25;97849.06;5077962;28;1034;-75
2023/01/11 08:40:58;;;;;;;;;;;;;;;20.79;30.76;97839.22;5078718;28;1062;-74
2023/01/11 08:43:23;;;;;;;;;;;;;;;20.81;30.63;97854.50;5078233;28;919;-74
2023/01/11 08:45:49;;;;;;;;;;;;;;;20.86;30.26;97852.38;5075565;28;1910;-74
2023/01/11 08:48:15;;;;;;;;;;;;;;;21.03;30.80;97851.09;5077120;28;947;-75
2023/01/11 08:50:40;;;;;;;;;;;;;;;21.22;30.31;97849.38;5078040;28;951;-76
2023/01/11 08:53:06;;;;;;;;;;;;;;;21.21;30.02;97848.59;5078244;28;975;-77
2023/01/11 08:55:31;;;;;;;;;;;;;;;21.03;30.32;97848.28;5078320;28;962;-76
2023/01/11 08:57:57;;;;;;;;;;;;;;;21.01;30.26;97859.25;5077994;28;923;-74
2023/01/11 09:00:22;;;;;;;;;;;;;;;21.00;30.27;97852.00;5078065;28;963;-78
2023/01/11 09:02:48;;;;;;;;;;;;;;;20.92;30.47;97847.75;5077780;28;1046;-75
2023/01/11 09:05:13;;;;;;;;;;;;;;;21.08;30.38;97854.19;5077593;28;1969;-75
2023/01/11 09:07:39;;;;;;;;;;;;;;;21.24;30.19;97852.56;5077916;28;1030;-74
2023/01/11 09:10:04;;;;;;;;;;;;;;;21.45;30.02;97862.50;5076994;28;1003;-74
2023/01/11 09:12:31;;;;;;;;;;;;;;;21.08;30.19;97853.38;5077937;28;920;-75
2023/01/11 09:14:57;;;;;;;;;;;;;;;21.08;30.12;97864.69;5076646;28;1004;-75
2023/01/11 09:17:22;;;;;;;;;;;;;;;20.86;30.46;97869.34;5077439;28;933;-76
2023/01/11 09:19:48;;;;;;;;;;;;;;;20.78;30.72;97863.88;5077661;28;874;-76
2023/01/11 09:22:13;;;;;;;;;;;;;;;21.59;30.09;97876.28;5077256;28;1028;-78
2023/01/11 09:24:38;;;;;;;;;;;;;;;21.25;30.54;97857.78;5078161;28;1973;-77
2023/01/11 09:27:04;;;;;;;;;;;;;;;21.09;30.53;97869.16;5077481;28;1055;-76
2023/01/11 09:29:29;;;;;;;;;;;;;;;20.72;30.96;97859.97;5077578;28;982;-77
2023/01/11 09:31:55;;;;;;;;;;;;;;;20.76;30.86;97866.34;5077113;28;920;-75
2023/01/11 09:34:20;;;;;;;;;;;;;;;20.96;30.58;97873.94;5077211;28;960;-76
2023/01/11 09:36:47;;;;;;;;;;;;;;;21.39;30.41;97867.94;5075890;28;944;-76
2023/01/11 09:39:17;;;;;;;;;;;;;;;21.53;29.99;97878.06;5077520;28;960;-77
2023/01/11 09:41:42;;;;;;;;;;;;;;;21.21;30.54;97865.56;5076540;28;894;-76
2023/01/11 09:44:13;;;;;;;;;;;;;;;20.89;30.71;97859.97;5075657;28;1111;-77
2023/01/11 09:46:41;;;;;;;;;;;;;;;20.88;30.44;97862.00;5075710;28;1913;-76
2023/01/11 09:49:06;;;;;;;;;;;;;;;20.95;30.96;97867.47;5076965;28;926;-76
2023/01/11 09:51:33;;;;;;;;;;;;;;;21.13;30.72;97861.34;5074383;28;976;-77
2023/01/11 09:54:00;;;;;;;;;;;;;;;21.20;30.80;97861.16;5074733;28;972;-75
2023/01/11 09:56:30;;;;;;;;;;;;;;;21.08;30.42;97873.19;5074345;28;1065;-76
2023/01/11 09:59:18;;;;;;;;;;;;;;;21.08;30.55;97865.50;5057796;28;944;-79
2023/01/11 10:01:44;;;;;;;;;;;;;;;21.01;30.31;97843.06;5074708;28;1021;-77
2023/01/11 10:04:31;;;;;;;;;;;;;;;20.91;31.23;97851.84;5074603;28;1024;-75
2023/01/11 10:06:59;;;;;;;;;;;;;;;21.17;30.77;97856.38;5073802;28;1905;-75
2023/01/11 10:09:35;;;;;;;;;;;;;;;21.32;30.39;97857.59;5074384;28;999;-76
2023/01/11 10:12:04;;;;;;;;;;;;;;;21.09;30.35;97860.66;5074311;28;1111;-76
2023/01/11 10:14:52;;;;;;;;;;;;;;;21.03;30.71;97859.59;5073799;28;968;-75
2023/01/11 10:17:31;;;;;;;;;;;;;;;21.07;30.33;97841.28;5073520;28;1090;-75
2023/01/11 10:19:59;;;;;;;;;;;;;;;21.27;30.88;97852.47;5074161;28;968;-75
2023/01/11 10:22:35;;;;;;;;;;;;;;;21.64;30.24;97853.06;5063845;28;1053;-75
2023/01/11 10:25:15;;;;;;;;;;;;;;;21.46;30.24;97862.09;5091437;28;1898;-78
2023/01/11 10:27:57;;;;;;;;;;;;;;;21.06;30.90;97864.38;5076057;28;1167;-75
2023/01/11 10:39:49;;;;;;;;;;;;;;;21.36;30.62;97860.34;5089220;28;1071;-75
2023/01/11 10:42:20;;;;;;;;;;;;;;;21.39;30.50;97847.31;5086993;28;1266;-75
2023/01/11 10:45:05;;;;;;;;;;;;;;;21.14;30.53;97843.16;5091226;28;1965;-75
2023/01/11 10:47:33;;;;;;;;;;;;;;;21.05;30.64;97843.78;5091784;28;907;-76
2023/01/11 10:50:00;;;;;;;;;;;;;;;21.09;30.39;97838.03;5075918;28;1008;-75
2023/01/11 10:52:33;;;;;;;;;;;;;;;21.30;30.93;97833.84;5090694;28;945;-75
2023/01/11 10:55:01;;;;;;;;;;;;;;;21.32;30.52;97839.84;5075833;28;1066;-75
2023/01/11 10:57:39;;;;;;;;;;;;;;;21.59;30.13;97836.63;5076142;28;956;-75
2023/01/11 11:00:12;;;;;;;;;;;;;;;21.11;30.69;97810.06;5091369;28;953;-75
2023/01/11 11:02:37;;;;;;;;;;;;;;;20.80;31.09;97821.00;5091394;28;943;-75
2023/01/11 11:05:21;;;;;;;;;;;;;;;20.68;31.13;97818.91;5075585;28;1961;-74
2023/01/11 11:07:56;;;;;;;;;;;;;;;21.08;31.51;97825.09;5113868;28;1268;-75
2023/01/11 11:10:24;;;;;;;;;;;;;;;21.35;30.73;97826.81;5113976;28;1216;-75
2023/01/11 11:12:55;;;;;;;;;;;;;;;21.25;30.63;97831.53;5096633;28;1025;-75
2023/01/11 11:15:47;;;;;;;;;;;;;;;20.94;31.10;97825.50;5113962;28;1075;-75
2023/01/11 11:18:12;;;;;;;;;;;;;;;20.83;31.22;97831.44;5073396;28;1001;-75
2023/01/11 11:20:38;;;;;;;;;;;;;;;20.76;30.88;97826.75;5073272;28;963;-75
2023/01/11 11:23:03;;;;;;;;;;;;;;;21.13;31.16;97821.72;5056534;28;1083;-76
2023/01/11 11:25:29;;;;;;;;;;;;;;;21.23;30.99;97828.34;5056320;28;1963;-75
2023/01/11 11:27:55;;;;;;;;;;;;;;;21.24;30.89;97816.59;5073246;28;1032;-75
2023/01/11 11:30:25;;;;;;;;;;;;;;;20.88;31.45;97813.94;5022932;28;1426;-75
2023/01/11 11:32:53;;;;;;;;;;;;;;;20.88;31.00;97811.13;5039661;28;1052;-75
2023/01/11 11:35:39;;;;;;;;;;;;;;;20.99;30.74;97808.00;5056360;28;1032;-75
2023/01/11 11:38:04;;;;;;;;;;;;;;;20.80;30.93;97809.69;5052124;28;1000;-76
2023/01/11 11:40:33;;;;;;;;;;;;;;;21.16;31.33;97812.34;5036565;28;970;-75
2023/01/11 11:43:09;;;;;;;;;;;;;;;21.26;30.88;97814.09;5036486;28;1071;-75
2023/01/11 11:45:34;;;;;;;;;;;;;;;21.23;30.89;97809.31;5036264;28;1898;-75
2023/01/11 11:48:00;;;;;;;;;;;;;;;21.36;30.63;97812.25;5036423;28;1013;-75
2023/01/11 11:50:26;;;;;;;;;;;;;;;21.10;30.79;97810.53;5036226;28;1086;-74
2023/01/11 11:53:02;;;;;;;;;;;;;;;21.06;30.96;97810.63;5036515;28;1002;-75
2023/01/11 11:55:29;;;;;;;;;;;;;;;20.76;31.28;97815.44;5061092;28;933;-75
2023/01/11 11:57:55;;;;;;;;;;;;;;;20.87;31.52;97812.31;5075278;28;965;-75
2023/01/11 12:00:30;;;;;;;;;;;;;;;21.01;31.22;97814.00;5075339;28;945;-75
2023/01/11 12:03:13;;;;;;;;;;;;;;;21.02;31.38;97815.56;5091093;28;888;-75
2023/01/11 12:05:47;;;;;;;;;;;;;;;20.98;31.12;97814.88;5094572;28;1902;-75
2023/01/11 12:08:13;;;;;;;;;;;;;;;20.78;31.43;97820.66;5094721;28;1128;-75
2023/01/11 12:10:38;;;;;;;;;;;;;;;20.89;31.12;97809.88;5094863;28;908;-75
2023/01/11 12:13:07;;;;;;;;;;;;;;;20.73;31.25;97824.03;5081299;28;1090;-75
2023/01/11 12:15:33;;;;;;;;;;;;;;;21.01;31.42;97826.09;5094105;28;1099;-76
2023/01/11 12:18:17;;;;;;;;;;;;;;;21.22;30.91;97823.91;5094411;28;974;-75
2023/01/11 12:20:43;;;;;;;;;;;;;;;21.17;31.11;97822.44;5078693;28;1112;-75
2023/01/11 12:23:09;;;;;;;;;;;;;;;20.87;31.53;97814.38;5078404;28;942;-75
2023/01/11 12:25:45;;;;;;;;;;;;;;;20.86;31.14;97809.94;5078552;28;1975;-76
2023/01/11 12:28:14;;;;;;;;;;;;;;;21.01;31.25;97814.00;5093967;28;1067;-75
2023/01/11 12:30:40;;;;;;;;;;;;;;;21.14;31.13;97817.69;5078474;28;1009;-75
2023/01/11 12:33:08;;;;;;;;;;;;;;;21.36;31.00;97817.09;5078288;28;944;-75
2023/01/11 12:35:34;;;;;;;;;;;;;;;21.15;30.92;97816.44;5078207;28;921;-75
2023/01/11 12:37:59;;;;;;;;;;;;;;;21.01;31.10;97820.44;5078120;28;917;-75
2023/01/11 12:40:43;;;;;;;;;;;;;;;21.05;30.55;97826.00;5078361;28;928;-75
2023/01/11 12:43:27;;;;;;;;;;;;;;;21.01;31.69;97837.41;5077944;28;1031;-76
2023/01/11 12:46:03;;;;;;;;;;;;;;;21.17;31.41;97835.78;5078222;28;1982;-75
2023/01/11 12:48:48;;;;;;;;;;;;;;;21.31;31.16;97841.88;5093593;28;962;-75
2023/01/11 12:51:23;;;;;;;;;;;;;;;20.88;31.13;97847.88;5078116;28;990;-75
2023/01/11 12:54:04;;;;;;;;;;;;;;;20.89;31.25;97851.50;5093577;28;934;-76
2023/01/11 12:56:33;;;;;;;;;;;;;;;20.90;30.70;97847.44;5076507;28;1153;-75
2023/01/11 12:59:01;;;;;;;;;;;;;;;21.25;31.30;97849.28;5076846;28;957;-75
2023/01/11 13:01:39;;;;;;;;;;;;;;;21.17;31.52;97853.56;5093297;28;1270;-75
2023/01/11 13:04:04;;;;;;;;;;;;;;;21.30;30.99;97860.09;5077890;28;1013;-75
2023/01/11 13:06:34;;;;;;;;;;;;;;;20.97;31.05;97861.38;5077503;28;1913;-75
2023/01/11 13:09:02;;;;;;;;;;;;;;;21.14;30.39;97856.47;5093459;28;1058;-76
2023/01/11 13:11:36;;;;;;;;;;;;;;;21.17;31.30;97855.59;5092972;28;970;-75
2023/01/11 13:14:05;;;;;;;;;;;;;;;21.02;31.76;97869.31;5093376;28;1041;-75
2023/01/11 13:16:37;;;;;;;;;;;;;;;21.20;31.52;97872.47;5114774;28;1046;-76
2023/01/11 13:19:09;;;;;;;;;;;;;;;21.02;31.48;97878.59;5098769;28;1008;-75
2023/01/11 13:21:36;;;;;;;;;;;;;;;21.10;30.93;97884.88;5098489;28;1371;-75
2023/01/11 13:24:02;;;;;;;;;;;;;;;20.95;31.03;97884.44;5098484;28;1027;-75
2023/01/11 13:26:33;;;;;;;;;;;;;;;21.00;30.56;97895.22;5098339;28;1913;-76
2023/01/11 13:28:59;;;;;;;;;;;;;;;21.14;31.26;97891.25;5099015;28;1012;-75
2023/01/11 13:31:25;;;;;;;;;;;;;;;21.11;31.46;97902.66;5098522;28;980;-75
2023/01/11 13:33:52;;;;;;;;;;;;;;;21.09;31.42;97897.44;5098536;28;985;-75
2023/01/11 13:36:20;;;;;;;;;;;;;;;21.11;31.15;97903.44;5098579;28;1009;-75
2023/01/11 13:38:45;;;;;;;;;;;;;;;21.10;30.88;97907.50;5098636;28;992;-75
2023/01/11 13:41:13;;;;;;;;;;;;;;;20.90;31.36;97920.97;5115472;28;979;-75